createdAt,value
2018-12-21T00:02:16.707Z,100614.19
2018-12-21T00:04:42.736Z,100612.67
2018-12-21T00:07:08.474Z,100614.02
2018-12-21T00:09:34.198Z,100604.97
2018-12-21T00:11:59.917Z,100609.31
2018-12-21T00:14:25.726Z,100608.31
2018-12-21T00:16:51.454Z,100601.28
2018-12-21T00:19:17.221Z,100600.95
2018-12-21T00:21:42.996Z,100597.93
2018-12-21T00:24:08.887Z,100601.61
2018-12-21T00:26:34.638Z,100592.91
2018-12-21T00:29:00.466Z,100587.36
2018-12-21T00:31:32.716Z,100582.85
2018-12-21T00:34:04.710Z,100587.55
2018-12-21T00:36:36.839Z,100583.52
2018-12-21T00:39:10.919Z,100576.16
2018-12-21T00:41:36.714Z,100581.33
2018-12-21T00:44:05.087Z,100583.86
2018-12-21T00:46:31.974Z,100580.50
2018-12-21T00:48:57.793Z,100582.52
2018-12-21T00:51:30.214Z,100577.49
2018-12-21T00:53:51.339Z,100576.30
2018-12-21T00:56:17.153Z,100571.12
2018-12-21T00:58:42.971Z,100571.80
2018-12-21T01:01:08.782Z,100570.60
2018-12-21T01:03:34.529Z,100568.93
2018-12-21T01:06:00.358Z,100568.75
2018-12-21T01:08:26.102Z,100565.58
2018-12-21T01:10:51.990Z,100568.73
2018-12-21T01:13:17.927Z,100565.77
2018-12-21T01:15:43.643Z,100573.43
2018-12-21T01:18:09.382Z,100572.61
2018-12-21T01:20:35.190Z,100564.42
2018-12-21T01:23:00.914Z,100568.75
2018-12-21T01:25:26.727Z,100569.41
2018-12-21T01:27:52.451Z,100566.58
2018-12-21T01:30:18.174Z,100572.76
2018-12-21T01:32:43.898Z,100573.95
2018-12-21T01:35:09.723Z,100565.56
2018-12-21T01:37:35.449Z,100571.75
2018-12-21T01:40:01.265Z,100565.56
2018-12-21T01:42:27.082Z,100569.07
2018-12-21T01:44:52.907Z,100561.70
2018-12-21T01:47:18.627Z,100562.03
2018-12-21T01:49:44.364Z,100563.03
2018-12-21T01:52:10.075Z,100558.69
2018-12-21T01:54:35.795Z,100566.39
2018-12-21T01:57:01.526Z,100560.02
2018-12-21T01:59:27.250Z,100565.20
2018-12-21T02:01:52.971Z,100561.02
2018-12-21T02:04:18.810Z,100554.32
2018-12-21T02:06:44.629Z,100552.13
2018-12-21T02:09:10.340Z,100544.46
2018-12-21T02:11:36.050Z,100546.96
2018-12-21T02:14:01.879Z,100545.66
2018-12-21T02:16:28.520Z,100546.15
2018-12-21T02:18:54.238Z,100548.64
2018-12-21T02:21:19.953Z,100539.59
2018-12-21T02:23:45.675Z,100536.91
2018-12-21T02:26:11.488Z,100535.91
2018-12-21T02:28:37.306Z,100536.91
2018-12-21T02:31:03.237Z,100539.44
2018-12-21T02:33:29.062Z,100531.21
2018-12-21T02:35:54.776Z,100531.40
2018-12-21T02:38:21.007Z,100534.94
2018-12-21T02:40:53.743Z,100531.92
2018-12-21T02:43:19.466Z,100529.59
2018-12-21T02:45:45.173Z,100536.95
2018-12-21T02:48:10.917Z,100527.73
2018-12-21T02:50:36.656Z,100522.21
2018-12-21T02:53:02.486Z,100524.38
2018-12-21T02:55:28.262Z,100515.84
2018-12-21T02:57:54.071Z,100516.85
2018-12-21T03:00:20.008Z,100508.14
2018-12-21T03:02:45.739Z,100506.80
2018-12-21T03:05:11.756Z,100502.45
2018-12-21T03:07:37.462Z,100506.14
2018-12-21T03:10:03.691Z,100505.13
2018-12-21T03:12:29.410Z,100488.20
2018-12-21T03:14:55.231Z,100456.16
2018-12-21T03:17:20.943Z,100489.73
2018-12-21T03:19:46.837Z,100479.55
2018-12-21T03:22:15.096Z,100478.73
2018-12-21T03:24:40.306Z,100475.72
2018-12-21T03:27:06.122Z,100474.72
2018-12-21T03:29:31.879Z,100481.46
2018-12-21T03:31:57.711Z,100473.76
2018-12-21T03:34:23.572Z,100475.09
2018-12-21T03:36:49.474Z,100480.94
2018-12-21T03:39:15.195Z,100481.75
2018-12-21T03:41:40.911Z,100482.41
2018-12-21T03:44:06.632Z,100472.17
2018-12-21T03:46:32.574Z,100463.27
2018-12-21T03:48:58.333Z,100457.58
2018-12-21T03:51:24.234Z,100457.23
2018-12-21T03:53:50.042Z,100451.88
2018-12-21T03:56:15.760Z,100442.34
2018-12-21T03:58:41.467Z,100433.11
2018-12-21T04:01:07.274Z,100427.09
2018-12-21T04:03:32.986Z,100428.94
2018-12-21T04:05:58.706Z,100424.39
2018-12-21T04:08:24.410Z,100418.02
2018-12-21T04:10:50.138Z,100418.70
2018-12-21T04:13:15.850Z,100416.84
2018-12-21T04:15:41.575Z,100415.69
2018-12-21T04:18:07.393Z,100405.30
2018-12-21T04:20:33.114Z,100411.01
2018-12-21T04:22:58.814Z,100395.75
2018-12-21T04:25:24.539Z,100396.93
2018-12-21T04:27:50.255Z,100394.25
2018-12-21T04:30:15.984Z,100393.24
2018-12-21T04:32:41.703Z,100395.23
2018-12-21T04:35:07.526Z,100387.53
2018-12-21T04:37:33.338Z,100390.89
2018-12-21T04:39:59.170Z,100384.19
2018-12-21T04:42:24.887Z,100380.31
2018-12-21T04:44:50.698Z,100384.00
2018-12-21T04:47:16.522Z,100373.94
2018-12-21T04:49:42.249Z,100376.63
2018-12-21T04:52:07.974Z,100376.95
2018-12-21T04:54:33.786Z,100368.25
2018-12-21T04:56:59.502Z,100370.41
2018-12-21T04:59:25.228Z,100368.39
2018-12-21T05:01:51.061Z,100357.93
2018-12-21T05:04:20.195Z,100364.75
2018-12-21T05:06:44.510Z,100368.25
2018-12-21T05:09:10.227Z,100364.58
2018-12-21T05:11:35.974Z,100369.27
2018-12-21T05:14:01.807Z,100361.36
2018-12-21T05:16:27.528Z,100360.68
2018-12-21T05:18:53.258Z,100356.85
2018-12-21T05:21:19.100Z,100357.34
2018-12-21T05:23:44.931Z,100351.02
2018-12-21T05:26:10.655Z,100345.14
2018-12-21T05:28:36.393Z,100348.81
2018-12-21T05:31:02.222Z,100342.59
2018-12-21T05:33:27.954Z,100338.63
2018-12-21T05:35:53.774Z,100338.96
2018-12-21T05:38:19.494Z,100324.05
2018-12-21T05:40:45.222Z,100316.86
2018-12-21T05:43:10.951Z,100317.41
2018-12-21T05:45:36.670Z,100312.86
2018-12-21T05:48:02.511Z,100304.00
2018-12-21T05:50:28.240Z,100302.34
2018-12-21T05:53:00.769Z,100303.89
2018-12-21T05:55:21.810Z,100299.02
2018-12-21T05:57:47.546Z,100294.13
2018-12-21T06:00:13.373Z,100290.82
2018-12-21T06:02:39.120Z,100278.44
2018-12-21T06:05:05.038Z,100273.56
2018-12-21T06:07:30.771Z,100266.38
2018-12-21T06:09:56.499Z,100264.70
2018-12-21T06:12:22.326Z,100262.38
2018-12-21T06:14:48.053Z,100269.22
2018-12-21T06:17:13.870Z,100268.55
2018-12-21T06:19:39.610Z,100276.25
2018-12-21T06:22:05.339Z,100260.69
2018-12-21T06:24:31.065Z,100262.03
2018-12-21T06:26:56.782Z,100245.44
2018-12-21T06:29:22.538Z,100256.34
2018-12-21T06:31:48.280Z,100251.14
2018-12-21T06:34:14.018Z,100246.97
2018-12-21T06:36:39.734Z,100245.95
2018-12-21T06:39:05.558Z,100236.91
2018-12-21T06:41:31.277Z,100245.10
2018-12-21T06:43:56.986Z,100244.28
2018-12-21T06:46:22.832Z,100237.06
2018-12-21T06:48:48.561Z,100236.93
2018-12-21T06:51:14.406Z,100233.56
2018-12-21T06:53:40.243Z,100233.89
2018-12-21T06:56:06.087Z,100231.05
2018-12-21T06:58:31.814Z,100230.37
2018-12-21T07:00:57.539Z,100230.20
2018-12-21T07:03:23.263Z,100224.00
2018-12-21T07:05:48.994Z,100227.00
2018-12-21T07:08:14.814Z,100228.16
2018-12-21T07:10:40.546Z,100220.98
2018-12-21T07:13:06.271Z,100214.81
2018-12-21T07:15:32.009Z,100212.46
2018-12-21T07:17:57.743Z,100207.43
2018-12-21T07:20:23.471Z,100211.45
2018-12-21T07:22:49.186Z,100200.41
2018-12-21T07:25:15.022Z,100193.02
2018-12-21T07:27:40.739Z,100177.95
2018-12-21T07:30:07.966Z,100171.75
2018-12-21T07:32:33.695Z,100176.62
2018-12-21T07:35:07.264Z,100183.48
2018-12-21T07:37:33.006Z,100172.21
2018-12-21T07:39:58.774Z,100175.74
2018-12-21T07:42:24.575Z,100164.37
2018-12-21T07:44:50.286Z,100168.06
2018-12-21T07:47:16.126Z,100163.22
2018-12-21T07:49:41.854Z,100157.54
2018-12-21T07:52:07.685Z,100158.36
2018-12-21T07:54:33.390Z,100149.50
2018-12-21T07:56:59.132Z,100149.30
2018-12-21T07:59:24.852Z,100144.14
2018-12-21T08:01:50.684Z,100142.47
2018-12-21T08:04:16.407Z,100144.80
2018-12-21T08:06:42.132Z,100132.22
2018-12-21T08:09:07.856Z,100136.92
2018-12-21T08:11:33.695Z,100131.89
2018-12-21T08:13:59.403Z,100126.53
2018-12-21T08:16:25.143Z,100121.30
2018-12-21T08:18:50.878Z,100123.03
2018-12-21T08:21:16.707Z,100120.98
2018-12-21T08:23:44.392Z,100114.80
2018-12-21T08:26:10.282Z,100111.44
2018-12-21T08:28:36.121Z,100112.25
2018-12-21T08:31:01.945Z,100107.09
2018-12-21T08:33:27.784Z,100099.19
2018-12-21T08:35:53.494Z,100099.19
2018-12-21T08:38:26.311Z,100086.44
2018-12-21T08:40:52.026Z,100079.94
2018-12-21T08:43:17.855Z,100080.87
2018-12-21T08:45:43.682Z,100072.35
2018-12-21T08:48:09.496Z,100072.55
2018-12-21T08:50:42.280Z,100071.20
2018-12-21T08:53:08.002Z,100060.00
2018-12-21T08:55:33.714Z,100064.55
2018-12-21T08:58:06.559Z,100055.82
2018-12-21T09:00:32.273Z,100049.61
2018-12-21T09:02:58.492Z,100042.78
2018-12-21T09:05:24.670Z,100034.88
2018-12-21T09:07:50.978Z,100029.52
2018-12-21T09:10:16.911Z,100033.53
2018-12-21T09:12:42.687Z,100024.48
2018-12-21T09:15:10.395Z,100019.81
2018-12-21T09:17:37.478Z,100017.98
2018-12-21T09:20:08.036Z,100011.78
2018-12-21T09:22:34.597Z,100006.62
2018-12-21T09:25:00.730Z,100001.25
2018-12-21T09:27:26.746Z,100002.23
2018-12-21T09:29:52.493Z,99999.55
2018-12-21T09:32:18.238Z,99990.54
2018-12-21T09:34:44.182Z,99995.38
2018-12-21T09:37:10.633Z,99798.97
2018-12-21T09:39:37.296Z,99990.50
2018-12-21T09:42:03.211Z,99988.64
2018-12-21T09:44:29.406Z,99981.61
2018-12-21T09:46:56.765Z,99970.89
2018-12-21T09:49:25.203Z,99973.90
2018-12-21T09:51:51.523Z,99961.19
2018-12-21T09:54:17.794Z,99959.36
2018-12-21T09:56:43.951Z,99952.83
2018-12-21T09:59:10.044Z,99955.34
2018-12-21T10:01:35.775Z,99948.44
2018-12-21T10:04:01.610Z,99926.36
2018-12-21T10:06:34.378Z,99925.55
2018-12-21T10:09:00.097Z,99910.93
2018-12-21T10:11:25.925Z,99908.58
2018-12-21T10:13:51.648Z,99904.03
2018-12-21T10:16:17.583Z,99894.16
2018-12-21T10:18:50.147Z,99889.13
2018-12-21T10:21:15.886Z,99882.75
2018-12-21T10:23:41.900Z,99884.58
2018-12-21T10:26:07.639Z,99873.69
2018-12-21T10:28:33.574Z,99868.57
2018-12-21T10:30:59.295Z,99860.53
2018-12-21T10:33:25.315Z,99852.81
2018-12-21T10:35:51.066Z,99843.59
2018-12-21T10:38:18.827Z,99837.81
2018-12-21T10:40:44.666Z,99833.30
2018-12-21T10:43:10.514Z,99825.12
2018-12-21T10:45:41.622Z,99812.56
2018-12-21T10:48:04.199Z,99809.36
2018-12-21T10:50:30.197Z,99798.78
2018-12-21T10:52:55.922Z,99800.62
2018-12-21T10:55:21.642Z,99801.47
2018-12-21T10:57:47.375Z,99797.35
2018-12-21T11:00:13.626Z,99786.78
2018-12-21T11:02:39.435Z,99782.44
2018-12-21T11:05:05.367Z,99768.45
2018-12-21T11:07:31.105Z,99765.39
2018-12-21T11:09:56.926Z,99761.36
2018-12-21T11:12:22.655Z,99759.12
2018-12-21T11:14:48.379Z,99750.55
2018-12-21T11:17:14.103Z,99745.83
2018-12-21T11:19:39.939Z,99736.41
2018-12-21T11:22:05.776Z,99724.24
2018-12-21T11:24:35.425Z,99719.86
2018-12-21T11:26:59.226Z,99706.80
2018-12-21T11:29:24.931Z,99706.14
2018-12-21T11:31:50.662Z,99690.13
2018-12-21T11:34:16.394Z,99679.47
2018-12-21T11:36:42.131Z,99674.53
2018-12-21T11:39:07.952Z,99672.41
2018-12-21T11:41:33.695Z,99660.34
2018-12-21T11:43:59.443Z,99650.75
2018-12-21T11:46:25.178Z,99641.48
2018-12-21T11:48:50.923Z,99634.56
2018-12-21T11:51:16.769Z,99636.08
2018-12-21T11:53:42.518Z,99625.67
2018-12-21T11:56:08.334Z,99623.83
2018-12-21T11:58:34.054Z,99617.52
2018-12-21T12:00:59.770Z,99618.76
2018-12-21T12:03:25.490Z,99606.95
2018-12-21T12:05:51.199Z,99604.77
2018-12-21T12:08:17.023Z,99595.55
2018-12-21T12:10:42.743Z,99595.02
2018-12-21T12:13:08.479Z,99581.62
2018-12-21T12:15:34.203Z,99582.82
2018-12-21T12:18:00.027Z,99576.52
2018-12-21T12:20:25.759Z,99565.08
2018-12-21T12:22:51.478Z,99559.16
2018-12-21T12:25:17.190Z,99557.43
2018-12-21T12:27:42.936Z,99556.30
2018-12-21T12:30:08.871Z,99550.73
2018-12-21T12:32:34.594Z,99542.69
2018-12-21T12:35:00.342Z,99541.56
2018-12-21T12:37:26.067Z,99535.98
2018-12-21T12:39:51.803Z,99531.57
2018-12-21T12:42:17.526Z,99518.66
2018-12-21T12:44:43.314Z,99504.14
2018-12-21T12:47:09.040Z,99508.25
2018-12-21T12:49:34.775Z,99498.25
2018-12-21T12:52:00.505Z,99494.54
2018-12-21T12:54:26.235Z,99479.92
2018-12-21T12:56:52.055Z,99472.07
2018-12-21T12:59:17.790Z,99474.44
2018-12-21T13:01:43.735Z,99467.02
2018-12-21T13:04:09.467Z,99459.33
2018-12-21T13:06:35.229Z,99454.96
2018-12-21T13:09:01.027Z,99442.70
2018-12-21T13:11:26.752Z,99436.00
2018-12-21T13:13:53.092Z,99431.53
2018-12-21T13:16:18.811Z,99431.53
2018-12-21T13:18:44.679Z,99421.97
2018-12-21T13:21:10.406Z,99422.88
2018-12-21T13:23:36.143Z,99425.98
2018-12-21T13:26:01.864Z,99415.58
2018-12-21T13:28:27.599Z,99415.27
2018-12-21T13:30:53.523Z,99405.57
2018-12-21T13:33:19.362Z,99392.27
2018-12-21T13:35:45.115Z,99376.19
2018-12-21T13:38:10.846Z,99365.05
2018-12-21T13:40:36.592Z,99359.48
2018-12-21T13:43:02.319Z,99345.77
2018-12-21T13:45:28.052Z,99337.41
2018-12-21T13:47:53.778Z,99324.54
2018-12-21T13:50:19.505Z,99329.81
2018-12-21T13:52:45.326Z,99321.77
2018-12-21T13:55:19.867Z,99321.77
2018-12-21T13:57:38.791Z,99312.98
2018-12-21T14:00:06.423Z,99310.11
2018-12-21T14:02:32.135Z,99305.47
2018-12-21T14:04:57.979Z,99297.52
2018-12-21T14:07:23.699Z,99300.63
2018-12-21T14:09:49.531Z,99302.69
2018-12-21T14:12:15.475Z,99290.31
2018-12-21T14:14:41.190Z,99286.48
2018-12-21T14:17:06.916Z,99277.64
2018-12-21T14:19:32.633Z,99278.04
2018-12-21T14:21:58.473Z,99277.02
2018-12-21T14:24:24.206Z,99271.34
2018-12-21T14:26:50.068Z,99268.66
2018-12-21T14:29:15.890Z,99258.78
2018-12-21T14:31:41.627Z,99252.27
2018-12-21T14:34:07.447Z,99244.23
2018-12-21T14:36:33.162Z,99242.09
2018-12-21T14:38:58.999Z,99229.09
2018-12-21T14:41:25.578Z,99227.35
2018-12-21T14:43:51.358Z,99220.25
2018-12-21T14:46:17.298Z,99224.27
2018-12-21T14:48:43.036Z,99220.25
2018-12-21T14:51:08.868Z,99220.03
2018-12-21T14:53:34.699Z,99219.22
2018-12-21T14:56:00.423Z,99219.09
2018-12-21T14:58:26.158Z,99219.50
2018-12-21T15:00:51.988Z,99208.91
2018-12-21T15:03:17.703Z,99205.52
2018-12-21T15:05:43.630Z,99203.02
2018-12-21T15:08:09.365Z,99202.83
2018-12-21T15:10:35.094Z,99191.09
2018-12-21T15:13:00.822Z,99188.59
2018-12-21T15:15:26.540Z,99188.59
2018-12-21T15:17:52.278Z,99190.16
2018-12-21T15:20:18.095Z,99183.23
2018-12-21T15:22:43.827Z,99183.23
2018-12-21T15:25:09.654Z,99174.39
2018-12-21T15:27:35.479Z,99172.02
2018-12-21T15:30:01.428Z,99167.69
2018-12-21T15:32:27.270Z,99160.69
2018-12-21T15:34:53.094Z,99159.34
2018-12-21T15:37:18.848Z,99151.09
2018-12-21T15:39:44.565Z,99143.89
2018-12-21T15:42:10.286Z,99135.86
2018-12-21T15:44:36.014Z,99133.17
2018-12-21T15:47:08.906Z,99124.83
2018-12-21T15:49:29.708Z,99116.48
2018-12-21T15:51:55.677Z,99114.11
2018-12-21T15:54:21.442Z,99109.16
2018-12-21T15:56:47.360Z,99106.70
2018-12-21T15:59:13.165Z,99095.23
2018-12-21T16:01:38.898Z,99097.91
2018-12-21T16:04:04.759Z,99098.12
2018-12-21T16:06:30.482Z,99089.87
2018-12-21T16:08:56.374Z,99086.38
2018-12-21T16:11:22.098Z,99079.77
2018-12-21T16:13:47.937Z,99074.72
2018-12-21T16:16:13.670Z,99078.23
2018-12-21T16:18:39.392Z,99064.72
2018-12-21T16:21:05.219Z,99069.36
2018-12-21T16:23:31.050Z,99065.16
2018-12-21T16:26:03.452Z,99064.92
2018-12-21T16:28:24.559Z,99060.91
2018-12-21T16:30:50.290Z,99055.47
2018-12-21T16:33:16.118Z,99056.58
2018-12-21T16:35:41.954Z,99053.18
2018-12-21T16:38:07.707Z,99045.14
2018-12-21T16:40:33.575Z,99044.72
2018-12-21T16:42:59.450Z,99038.30
2018-12-21T16:45:25.343Z,99041.82
2018-12-21T16:47:51.074Z,99030.57
2018-12-21T16:50:16.912Z,99029.88
2018-12-21T16:52:42.797Z,99032.86
2018-12-21T16:55:08.842Z,99030.80
2018-12-21T16:57:34.654Z,99026.24
2018-12-21T17:00:00.399Z,99014.49
2018-12-21T17:02:26.127Z,99002.44
2018-12-21T17:04:51.881Z,98999.11
2018-12-21T17:07:17.622Z,99008.60
2018-12-21T17:09:43.443Z,99005.51
2018-12-21T17:12:09.191Z,98996.13
2018-12-21T17:14:35.234Z,98994.56
2018-12-21T17:17:01.019Z,98987.89
2018-12-21T17:19:26.798Z,98993.64
2018-12-21T17:21:53.304Z,98982.50
2018-12-21T17:24:19.179Z,98988.39
2018-12-21T17:26:45.110Z,98984.95
2018-12-21T17:29:10.930Z,98980.94
2018-12-21T17:31:36.866Z,98972.59
2018-12-21T17:34:02.721Z,98973.92
2018-12-21T17:36:28.451Z,98977.83
2018-12-21T17:38:54.340Z,98971.77
2018-12-21T17:41:20.074Z,98975.88
2018-12-21T17:43:45.895Z,98978.48
2018-12-21T17:46:11.693Z,98970.70
2018-12-21T17:48:37.460Z,98969.28
2018-12-21T17:51:03.295Z,98961.93
2018-12-21T17:53:29.127Z,98949.33
2018-12-21T17:55:54.916Z,98943.92
2018-12-21T17:58:20.642Z,98944.72
2018-12-21T18:00:46.415Z,98943.83
2018-12-21T18:03:15.671Z,98946.59
2018-12-21T18:05:41.471Z,98948.04
2018-12-21T18:08:07.191Z,98934.09
2018-12-21T18:10:32.941Z,98936.66
2018-12-21T18:12:58.674Z,98936.30
2018-12-21T18:15:24.398Z,98936.75
2018-12-21T18:17:50.135Z,98936.02
2018-12-21T18:20:15.864Z,98939.06
2018-12-21T18:22:41.930Z,98933.57
2018-12-21T18:25:10.622Z,98929.28
2018-12-21T18:27:36.463Z,98935.33
2018-12-21T18:30:06.336Z,98934.73
2018-12-21T18:32:32.291Z,98933.77
2018-12-21T18:35:00.034Z,98937.66
2018-12-21T18:37:25.786Z,98931.02
2018-12-21T18:39:51.612Z,98927.09
2018-12-21T18:42:17.456Z,98926.05
2018-12-21T18:44:43.188Z,98931.48
2018-12-21T18:47:09.047Z,98925.67
2018-12-21T18:49:34.786Z,98926.48
2018-12-21T18:52:00.518Z,98925.30
2018-12-21T18:54:26.250Z,98921.28
2018-12-21T18:56:53.220Z,98925.36
2018-12-21T18:59:18.963Z,98920.89
2018-12-21T19:01:44.738Z,98924.70
2018-12-21T19:04:10.478Z,98922.59
2018-12-21T19:06:36.212Z,98929.02
2018-12-21T19:09:02.274Z,98922.58
2018-12-21T19:11:28.030Z,98920.20
2018-12-21T19:13:53.886Z,98927.81
2018-12-21T19:16:19.756Z,98923.01
2018-12-21T19:18:45.621Z,98908.34
2018-12-21T19:21:18.231Z,98924.88
2018-12-21T19:23:43.994Z,98921.86
2018-12-21T19:26:09.772Z,98924.05
2018-12-21T19:28:35.505Z,98923.89
2018-12-21T19:31:01.325Z,98923.75
2018-12-21T19:33:27.047Z,98931.66
2018-12-21T19:35:52.771Z,98925.16
2018-12-21T19:38:18.489Z,98921.95
2018-12-21T19:40:44.210Z,98920.31
2018-12-21T19:43:09.944Z,98932.27
2018-12-21T19:45:35.679Z,98926.09
2018-12-21T19:48:01.416Z,98931.12
2018-12-21T19:50:27.239Z,98932.73
2018-12-21T19:52:52.954Z,98930.28
2018-12-21T19:55:22.699Z,98940.89
2018-12-21T19:57:48.434Z,98940.54
2018-12-21T20:00:21.300Z,98942.36
2018-12-21T20:02:47.026Z,98929.19
2018-12-21T20:05:12.779Z,98928.02
2018-12-21T20:07:38.498Z,98929.16
2018-12-21T20:10:06.734Z,98931.41
2018-12-21T20:12:32.462Z,98927.37
2018-12-21T20:14:58.203Z,98923.99
2018-12-21T20:17:24.030Z,98923.99
2018-12-21T20:19:49.755Z,98926.27
2018-12-21T20:22:15.485Z,98929.55
2018-12-21T20:24:41.319Z,98924.12
2018-12-21T20:27:13.380Z,98923.58
2018-12-21T20:29:34.924Z,98928.66
2018-12-21T20:32:00.850Z,98933.80
2018-12-21T20:34:26.600Z,98939.26
2018-12-21T20:36:52.426Z,98942.55
2018-12-21T20:39:18.262Z,98940.91
2018-12-21T20:41:43.996Z,98943.53
2018-12-21T20:44:09.823Z,98947.80
2018-12-21T20:46:35.658Z,98951.98
2018-12-21T20:49:01.478Z,98953.38
2018-12-21T20:51:27.226Z,98954.36
2018-12-21T20:53:52.951Z,98953.86
2018-12-21T20:56:18.683Z,98956.16
2018-12-21T20:58:44.396Z,98968.19
2018-12-21T21:01:10.135Z,98970.51
2018-12-21T21:03:35.862Z,98966.17
2018-12-21T21:06:01.808Z,98973.34
2018-12-21T21:08:27.635Z,98987.52
2018-12-21T21:10:53.466Z,98999.00
2018-12-21T21:13:19.665Z,99008.70
2018-12-21T21:15:45.646Z,99007.23
2018-12-21T21:18:11.361Z,99019.77
2018-12-21T21:20:37.195Z,99026.78
2018-12-21T21:23:02.927Z,99031.31
2018-12-21T21:25:28.658Z,99042.29
2018-12-21T21:27:54.437Z,99052.86
2018-12-21T21:30:20.158Z,99051.80
2018-12-21T21:32:45.987Z,99070.42
2018-12-21T21:35:11.698Z,99087.67
2018-12-21T21:37:37.639Z,99090.88
2018-12-21T21:40:12.250Z,99123.53
2018-12-21T21:42:37.978Z,99112.73
2018-12-21T21:45:06.823Z,99114.52
2018-12-21T21:47:32.562Z,99130.31
2018-12-21T21:49:58.285Z,99139.09
2018-12-21T21:52:24.107Z,99151.08
2018-12-21T21:54:49.848Z,99156.95
2018-12-21T21:57:15.587Z,99169.02
2018-12-21T21:59:41.305Z,99179.45
2018-12-21T22:02:07.139Z,99181.82
2018-12-21T22:04:32.862Z,99195.95
2018-12-21T22:06:58.603Z,99199.26
2018-12-21T22:09:24.411Z,99213.70
2018-12-21T22:11:50.242Z,99215.19
2018-12-21T22:14:16.061Z,99229.31
2018-12-21T22:16:41.888Z,99228.17
2018-12-21T22:19:14.601Z,99247.48
2018-12-21T22:21:40.339Z,99250.38
2018-12-21T22:24:06.055Z,99247.27
2018-12-21T22:26:31.877Z,99259.88
2018-12-21T22:28:57.710Z,99262.97
2018-12-21T22:31:23.431Z,99274.64
2018-12-21T22:33:49.166Z,99285.47
2018-12-21T22:36:14.943Z,99286.31
2018-12-21T22:38:40.734Z,99297.45
2018-12-21T22:41:06.459Z,99303.03
2018-12-21T22:43:32.195Z,99310.45
2018-12-21T22:45:57.907Z,99307.87
2018-12-21T22:48:23.746Z,99321.17
2018-12-21T22:50:49.527Z,99331.28
2018-12-21T22:53:15.262Z,99335.67
2018-12-21T22:55:40.999Z,99347.23
2018-12-21T22:58:06.727Z,99357.33
2018-12-21T23:00:34.014Z,99361.13
2018-12-21T23:02:59.853Z,99366.80
2018-12-21T23:05:25.811Z,99377.56
2018-12-21T23:07:51.712Z,99374.11
2018-12-21T23:10:17.601Z,99374.52
2018-12-21T23:12:43.331Z,99380.40
2018-12-21T23:15:09.060Z,99380.80
2018-12-21T23:17:34.902Z,99396.16
2018-12-21T23:20:00.639Z,99385.53
2018-12-21T23:22:26.381Z,99403.79
2018-12-21T23:24:52.121Z,99411.38
2018-12-21T23:27:17.956Z,99417.38
2018-12-21T23:29:43.681Z,99426.65
2018-12-21T23:32:09.588Z,99433.66
2018-12-21T23:34:35.346Z,99433.34
2018-12-21T23:37:01.135Z,99440.75
2018-12-21T23:39:26.906Z,99458.77
2018-12-21T23:41:52.651Z,99475.24
2018-12-21T23:44:18.390Z,99466.47
2018-12-21T23:46:44.132Z,99479.44
2018-12-21T23:49:17.046Z,99485.61
2018-12-21T23:51:42.880Z,99487.80
2018-12-21T23:54:08.614Z,99490.86
2018-12-21T23:56:34.329Z,99504.19
2018-12-21T23:59:00.050Z,99511.69
